createdAt,value
2022-07-30T00:01:44.131Z,62.54
2022-07-30T00:04:51.132Z,62.74
2022-07-30T00:07:57.273Z,62.95
2022-07-30T00:11:03.287Z,63.18
2022-07-30T00:14:09.932Z,63.34
2022-07-30T00:17:19.155Z,63.53
2022-07-30T00:20:28.029Z,63.66
2022-07-30T00:23:35.788Z,63.67
2022-07-30T00:26:41.947Z,63.70
2022-07-30T00:29:47.491Z,63.78
2022-07-30T00:32:53.825Z,63.90
2022-07-30T00:35:59.944Z,63.88
2022-07-30T00:39:07.713Z,63.83
2022-07-30T00:42:11.041Z,64.02
2022-07-30T00:45:18.409Z,64.14
2022-07-30T00:48:24.789Z,64.25
2022-07-30T00:51:31.560Z,64.35
2022-07-30T00:54:43.036Z,64.40
2022-07-30T00:57:49.513Z,64.32
2022-07-30T01:00:57.771Z,64.35
2022-07-30T01:04:04.942Z,64.44
2022-07-30T01:07:05.232Z,64.55
2022-07-30T01:10:00.354Z,64.72
2022-07-30T01:13:09.163Z,64.90
2022-07-30T01:16:15.406Z,65.03
2022-07-30T01:19:53.352Z,65.19
2022-07-30T01:23:41.940Z,65.19
2022-07-30T01:26:48.167Z,65.24
2022-07-30T01:29:54.226Z,65.36
2022-07-30T01:33:01.106Z,65.35
2022-07-30T01:36:08.197Z,65.31
2022-07-30T01:39:14.861Z,65.36
2022-07-30T01:42:21.538Z,65.44
2022-07-30T01:45:27.780Z,65.54
2022-07-30T01:48:36.024Z,65.60
2022-07-30T01:51:41.917Z,65.68
2022-07-30T01:54:50.299Z,65.77
2022-07-30T01:57:55.630Z,65.82
2022-07-30T02:01:05.573Z,65.89
2022-07-30T02:04:13.149Z,65.81
2022-07-30T02:07:31.534Z,65.90
2022-07-30T02:10:47.824Z,66.01
2022-07-30T02:14:04.045Z,66.11
2022-07-30T02:17:18.987Z,66.23
2022-07-30T02:20:20.864Z,66.34
2022-07-30T02:23:32.760Z,66.33
2022-07-30T02:26:40.561Z,66.32
2022-07-30T02:29:49.223Z,66.29
2022-07-30T02:32:56.797Z,66.32
2022-07-30T02:36:04.461Z,66.31
2022-07-30T02:39:12.346Z,66.39
2022-07-30T02:42:17.370Z,66.46
2022-07-30T02:45:27.174Z,66.50
2022-07-30T02:48:38.206Z,66.49
2022-07-30T02:51:45.840Z,66.55
2022-07-30T02:54:50.834Z,66.62
2022-07-30T02:57:57.462Z,66.70
2022-07-30T03:01:04.384Z,66.76
2022-07-30T03:04:11.937Z,66.81
2022-07-30T03:07:20.688Z,66.79
2022-07-30T03:10:27.245Z,66.79
2022-07-30T03:13:32.782Z,66.71
2022-07-30T03:16:39.535Z,66.72
2022-07-30T03:19:47.367Z,66.85
2022-07-30T03:22:58.230Z,66.93
2022-07-30T03:26:10.149Z,66.86
2022-07-30T03:29:17.297Z,66.87
2022-07-30T03:32:26.201Z,67.02
2022-07-30T03:35:34.050Z,67.17
2022-07-30T03:38:40.641Z,67.32
2022-07-30T03:41:48.638Z,67.35
2022-07-30T03:44:59.421Z,67.46
2022-07-30T03:48:05.351Z,67.59
2022-07-30T03:51:13.562Z,67.64
2022-07-30T03:54:21.793Z,67.66
2022-07-30T03:57:33.175Z,67.68
2022-07-30T04:00:40.372Z,67.71
2022-07-30T04:03:48.385Z,67.71
2022-07-30T04:06:55.676Z,67.72
2022-07-30T04:10:03.163Z,67.71
2022-07-30T04:13:11.562Z,67.76
2022-07-30T04:16:39.756Z,67.80
2022-07-30T04:19:52.426Z,67.88
2022-07-30T04:22:58.104Z,67.95
2022-07-30T04:26:04.491Z,68.00
2022-07-30T04:29:16.107Z,68.03
2022-07-30T04:32:19.973Z,68.05
2022-07-30T04:35:50.938Z,68.08
2022-07-30T04:38:40.257Z,68.10
2022-07-30T04:41:48.856Z,68.14
2022-07-30T04:44:57.055Z,68.13
2022-07-30T04:48:05.073Z,68.16
2022-07-30T04:51:17.232Z,68.16
2022-07-30T04:54:26.925Z,68.13
2022-07-30T04:57:33.287Z,68.13
2022-07-30T05:00:41.900Z,68.12
2022-07-30T05:03:48.472Z,68.11
2022-07-30T05:06:56.686Z,68.03
2022-07-30T05:10:04.606Z,67.96
2022-07-30T05:13:11.793Z,67.88
2022-07-30T05:16:21.617Z,67.85
2022-07-30T05:19:28.518Z,67.79
2022-07-30T05:22:37.767Z,67.77
2022-07-30T05:25:46.061Z,67.75
2022-07-30T05:28:58.451Z,67.70
2022-07-30T05:32:07.486Z,67.66
2022-07-30T05:35:14.191Z,67.64
2022-07-30T05:38:20.929Z,67.62
2022-07-30T05:41:33.738Z,67.55
2022-07-30T05:44:51.087Z,67.53
2022-07-30T05:47:56.889Z,67.49
2022-07-30T05:51:04.786Z,67.43
2022-07-30T05:54:12.043Z,67.31
2022-07-30T05:57:36.114Z,67.27
2022-07-30T06:00:43.458Z,67.23
2022-07-30T06:03:52.963Z,67.21
2022-07-30T06:07:03.947Z,67.18
2022-07-30T06:10:16.594Z,67.16
2022-07-30T06:13:27.800Z,67.09
2022-07-30T06:16:35.979Z,66.98
2022-07-30T06:19:47.151Z,66.82
2022-07-30T06:22:57.783Z,66.69
2022-07-30T06:26:24.471Z,66.59
2022-07-30T06:29:32.412Z,66.53
2022-07-30T06:32:39.740Z,66.48
2022-07-30T06:35:47.145Z,66.35
2022-07-30T06:38:56.188Z,66.20
2022-07-30T06:42:05.664Z,66.07
2022-07-30T06:45:31.532Z,65.87
2022-07-30T06:48:40.198Z,65.71
2022-07-30T06:51:48.644Z,65.67
2022-07-30T06:54:55.650Z,65.58
2022-07-30T06:58:13.883Z,65.42
2022-07-30T07:01:35.434Z,65.32
2022-07-30T07:04:44.114Z,65.16
2022-07-30T07:07:59.190Z,65.03
2022-07-30T07:11:02.397Z,64.95
2022-07-30T07:14:10.624Z,64.79
2022-07-30T07:17:18.155Z,64.70
2022-07-30T07:20:30.933Z,64.60
2022-07-30T07:23:42.582Z,64.40
2022-07-30T07:27:06.599Z,64.30
2022-07-30T07:30:12.863Z,64.18
2022-07-30T07:33:19.229Z,64.03
2022-07-30T07:36:27.477Z,63.90
2022-07-30T07:39:33.491Z,63.83
2022-07-30T07:42:41.330Z,63.68
2022-07-30T07:45:49.374Z,63.52
2022-07-30T07:48:59.642Z,63.41
2022-07-30T07:52:11.465Z,63.16
2022-07-30T07:55:20.490Z,63.02
2022-07-30T07:58:29.460Z,63.01
2022-07-30T08:01:38.556Z,62.94
2022-07-30T08:04:57.387Z,62.79
2022-07-30T08:08:24.629Z,62.69
2022-07-30T08:11:51.603Z,62.54
2022-07-30T08:15:20.155Z,62.35
2022-07-30T08:18:27.333Z,62.18
2022-07-30T08:21:49.731Z,62.00
2022-07-30T08:24:58.334Z,61.85
2022-07-30T08:28:08.029Z,61.70
2022-07-30T08:31:15.966Z,61.40
2022-07-30T08:34:20.413Z,61.08
2022-07-30T08:37:29.703Z,60.78
2022-07-30T08:40:35.534Z,60.65
2022-07-30T08:43:41.054Z,60.45
2022-07-30T08:46:48.342Z,60.38
2022-07-30T08:50:02.449Z,60.34
2022-07-30T08:53:15.724Z,60.25
2022-07-30T08:56:23.922Z,60.19
2022-07-30T08:59:59.882Z,60.09
2022-07-30T09:02:39.107Z,60.00
2022-07-30T09:05:45.714Z,59.70
2022-07-30T09:08:53.601Z,59.39
2022-07-30T09:11:58.702Z,59.18
2022-07-30T09:15:26.191Z,58.94
2022-07-30T09:18:53.700Z,58.75
2022-07-30T09:22:13.434Z,58.49
2022-07-30T09:25:23.134Z,58.21
2022-07-30T09:28:48.374Z,58.14
2022-07-30T09:32:18.333Z,58.18
2022-07-30T09:35:41.324Z,57.68
2022-07-30T09:39:08.095Z,57.20
2022-07-30T09:42:21.976Z,57.09
2022-07-30T09:45:34.937Z,56.96
2022-07-30T09:48:43.485Z,56.94
2022-07-30T09:51:59.305Z,56.75
2022-07-30T09:55:11.196Z,56.54
2022-07-30T09:58:27.472Z,56.31
2022-07-30T10:01:47.095Z,56.17
2022-07-30T10:04:55.497Z,56.09
2022-07-30T10:08:16.769Z,56.00
2022-07-30T10:11:22.630Z,55.87
2022-07-30T10:14:32.107Z,55.51
2022-07-30T10:17:37.502Z,55.36
2022-07-30T10:20:49.907Z,55.09
2022-07-30T10:24:12.980Z,54.86
2022-07-30T10:27:37.266Z,54.68
2022-07-30T10:30:53.473Z,54.42
2022-07-30T10:34:05.504Z,54.15
2022-07-30T10:37:15.562Z,54.03
2022-07-30T10:40:30.790Z,53.79
2022-07-30T10:43:50.370Z,53.51
2022-07-30T10:47:24.770Z,53.14
2022-07-30T10:50:36.968Z,53.07
2022-07-30T10:53:57.757Z,52.78
2022-07-30T10:57:32.471Z,52.78
2022-07-30T11:00:32.565Z,52.54
2022-07-30T11:03:45.197Z,52.35
2022-07-30T11:06:53.466Z,52.18
2022-07-30T11:10:09.228Z,51.39
2022-07-30T11:13:10.899Z,51.39
2022-07-30T11:16:18.406Z,51.48
2022-07-30T11:19:55.276Z,51.48
2022-07-30T11:22:46.614Z,51.45
2022-07-30T11:25:57.332Z,51.19
2022-07-30T11:29:07.279Z,51.03
2022-07-30T11:32:15.508Z,50.73
2022-07-30T11:35:35.208Z,50.39
2022-07-30T11:38:42.575Z,50.19
2022-07-30T11:41:51.009Z,49.65
2022-07-30T11:45:02.241Z,49.20
2022-07-30T11:48:09.980Z,49.25
2022-07-30T11:51:18.183Z,49.09
2022-07-30T11:54:28.020Z,48.70
2022-07-30T11:57:38.378Z,48.39
2022-07-30T12:01:00.934Z,48.21
2022-07-30T12:04:07.008Z,48.13
2022-07-30T12:07:14.417Z,48.03
2022-07-30T12:10:34.808Z,47.72
2022-07-30T12:13:44.190Z,47.44
2022-07-30T12:16:53.633Z,47.02
2022-07-30T12:20:03.357Z,46.78
2022-07-30T12:23:13.501Z,46.72
2022-07-30T12:26:20.367Z,46.98
2022-07-30T12:29:25.980Z,46.98
2022-07-30T12:32:36.481Z,46.29
2022-07-30T12:36:06.532Z,46.29
2022-07-30T12:39:13.819Z,46.08
2022-07-30T12:42:28.478Z,46.09
2022-07-30T12:45:51.783Z,45.95
2022-07-30T12:49:21.597Z,45.87
2022-07-30T12:52:28.377Z,45.74
2022-07-30T12:55:29.592Z,45.51
2022-07-30T12:58:39.679Z,45.24
2022-07-30T13:02:04.365Z,44.98
2022-07-30T13:05:13.639Z,44.88
2022-07-30T13:08:23.359Z,44.72
2022-07-30T13:11:53.500Z,44.64
2022-07-30T13:15:04.414Z,44.53
2022-07-30T13:18:15.219Z,44.40
2022-07-30T13:21:15.836Z,44.19
2022-07-30T13:24:22.669Z,43.94
2022-07-30T13:27:30.409Z,43.80
2022-07-30T13:30:41.421Z,43.57
2022-07-30T13:33:52.536Z,43.46
2022-07-30T13:37:02.570Z,43.37
2022-07-30T13:40:15.068Z,43.34
2022-07-30T13:43:22.805Z,43.33
2022-07-30T13:46:29.642Z,43.32
2022-07-30T13:49:36.995Z,43.31
2022-07-30T13:52:44.499Z,43.24
2022-07-30T13:55:53.466Z,43.10
2022-07-30T13:59:02.031Z,42.96
2022-07-30T14:02:11.297Z,42.88
2022-07-30T14:05:19.200Z,42.77
2022-07-30T14:08:25.862Z,42.54
2022-07-30T14:11:33.154Z,42.35
2022-07-30T14:14:41.119Z,42.37
2022-07-30T14:17:56.428Z,42.24
2022-07-30T14:21:00.357Z,42.08
2022-07-30T14:24:08.572Z,42.01
2022-07-30T14:27:15.372Z,41.95
2022-07-30T14:30:22.731Z,41.91
2022-07-30T14:33:30.442Z,41.89
2022-07-30T14:36:37.830Z,41.82
2022-07-30T14:39:43.804Z,41.86
2022-07-30T14:42:58.061Z,41.66
2022-07-30T14:46:06.630Z,41.47
2022-07-30T14:49:17.323Z,41.46
2022-07-30T14:52:27.192Z,41.41
2022-07-30T14:55:37.152Z,41.50
2022-07-30T14:58:44.610Z,41.47
2022-07-30T15:01:55.550Z,41.50
2022-07-30T15:05:01.358Z,41.48
2022-07-30T15:08:07.450Z,41.47
2022-07-30T15:11:17.518Z,41.38
2022-07-30T15:14:29.620Z,41.37
2022-07-30T15:17:39.531Z,41.34
2022-07-30T15:20:46.451Z,41.27
2022-07-30T15:23:52.527Z,41.22
2022-07-30T15:26:58.783Z,41.19
2022-07-30T15:30:06.514Z,41.15
2022-07-30T15:33:14.559Z,41.09
2022-07-30T15:36:22.023Z,41.00
2022-07-30T15:39:28.955Z,40.87
2022-07-30T15:42:40.702Z,40.81
2022-07-30T15:45:55.380Z,40.84
2022-07-30T15:48:57.052Z,40.88
2022-07-30T15:52:02.339Z,40.80
2022-07-30T15:55:10.186Z,40.46
2022-07-30T15:58:16.016Z,40.20
2022-07-30T16:01:23.528Z,40.18
2022-07-30T16:04:33.094Z,40.28
2022-07-30T16:07:48.764Z,40.29
2022-07-30T16:10:54.820Z,40.26
2022-07-30T16:14:04.573Z,40.25
2022-07-30T16:17:15.048Z,40.31
2022-07-30T16:20:23.732Z,40.39
2022-07-30T16:23:36.699Z,40.56
2022-07-30T16:26:38.248Z,40.23
2022-07-30T16:29:47.126Z,39.86
2022-07-30T16:32:54.008Z,39.92
2022-07-30T16:35:59.409Z,39.93
2022-07-30T16:39:07.663Z,40.07
2022-07-30T16:42:15.592Z,40.14
2022-07-30T16:45:23.060Z,40.30
2022-07-30T16:48:29.343Z,40.35
2022-07-30T16:51:37.224Z,40.49
2022-07-30T16:54:44.448Z,40.62
2022-07-30T16:57:53.021Z,40.73
2022-07-30T17:00:57.956Z,40.80
2022-07-30T17:04:04.385Z,40.95
2022-07-30T17:07:12.674Z,41.12
2022-07-30T17:10:23.570Z,41.25
2022-07-30T17:13:30.444Z,41.43
2022-07-30T17:16:38.245Z,41.61
2022-07-30T17:19:46.479Z,41.83
2022-07-30T17:22:52.426Z,42.03
2022-07-30T17:25:58.275Z,42.19
2022-07-30T17:29:04.948Z,42.42
2022-07-30T17:32:12.879Z,42.62
2022-07-30T17:35:21.074Z,42.84
2022-07-30T17:38:28.170Z,43.03
2022-07-30T17:41:34.414Z,43.23
2022-07-30T17:44:43.480Z,43.40
2022-07-30T17:47:49.176Z,43.59
2022-07-30T17:50:57.407Z,43.81
2022-07-30T17:54:03.991Z,43.94
2022-07-30T17:57:11.488Z,44.09
2022-07-30T18:00:20.034Z,44.25
2022-07-30T18:03:28.064Z,44.47
2022-07-30T18:06:34.090Z,44.64
2022-07-30T18:09:40.047Z,44.77
2022-07-30T18:12:48.480Z,44.96
2022-07-30T18:15:56.073Z,45.16
2022-07-30T18:19:03.054Z,45.38
2022-07-30T18:22:10.838Z,45.61
2022-07-30T18:25:19.372Z,45.81
2022-07-30T18:28:25.281Z,46.01
2022-07-30T18:31:31.048Z,46.11
2022-07-30T18:34:37.059Z,46.30
2022-07-30T18:37:43.309Z,46.47
2022-07-30T18:40:52.054Z,46.64
2022-07-30T18:43:59.775Z,46.84
2022-07-30T18:47:05.898Z,47.05
2022-07-30T18:50:12.092Z,47.26
2022-07-30T18:53:20.310Z,47.52
2022-07-30T18:56:25.147Z,47.77
2022-07-30T18:59:32.654Z,47.97
2022-07-30T19:02:39.475Z,48.25
2022-07-30T19:05:45.464Z,48.41
2022-07-30T19:08:53.949Z,48.63
2022-07-30T19:12:01.295Z,48.89
2022-07-30T19:15:13.988Z,49.03
2022-07-30T19:18:17.048Z,49.21
2022-07-30T19:21:23.487Z,49.38
2022-07-30T19:24:28.508Z,49.48
2022-07-30T19:27:39.848Z,49.63
2022-07-30T19:30:46.045Z,49.82
2022-07-30T19:33:52.863Z,50.02
2022-07-30T19:36:59.341Z,50.15
2022-07-30T19:40:07.122Z,50.32
2022-07-30T19:43:17.824Z,50.52
2022-07-30T19:46:25.034Z,50.72
2022-07-30T19:49:31.010Z,50.93
2022-07-30T19:52:39.673Z,51.11
2022-07-30T19:55:46.362Z,51.22
2022-07-30T19:58:56.351Z,51.40
2022-07-30T20:02:03.700Z,51.57
2022-07-30T20:05:11.218Z,51.75
2022-07-30T20:08:24.837Z,51.96
2022-07-30T20:11:35.961Z,52.19
2022-07-30T20:14:37.258Z,52.33
2022-07-30T20:17:46.445Z,52.53
2022-07-30T20:20:52.971Z,52.72
2022-07-30T20:23:59.646Z,52.93
2022-07-30T20:27:35.390Z,53.06
2022-07-30T20:30:16.483Z,53.18
2022-07-30T20:33:36.091Z,53.30
2022-07-30T20:36:31.893Z,53.42
2022-07-30T20:39:40.415Z,53.60
2022-07-30T20:42:46.069Z,53.83
2022-07-30T20:45:53.147Z,54.01
2022-07-30T20:49:00.046Z,54.14
2022-07-30T20:52:06.647Z,54.33
2022-07-30T20:55:14.442Z,54.52
2022-07-30T20:58:21.165Z,54.71
2022-07-30T21:01:28.347Z,54.92
2022-07-30T21:04:35.543Z,55.15
2022-07-30T21:07:43.853Z,55.29
2022-07-30T21:10:50.124Z,55.43
2022-07-30T21:13:59.057Z,55.61
2022-07-30T21:17:06.829Z,55.70
2022-07-30T21:20:14.141Z,55.83
2022-07-30T21:23:24.910Z,55.92
2022-07-30T21:26:30.555Z,55.95
2022-07-30T21:29:38.160Z,56.07
2022-07-30T21:32:44.114Z,56.18
2022-07-30T21:35:50.601Z,56.32
2022-07-30T21:38:56.237Z,56.46
2022-07-30T21:42:02.366Z,56.59
2022-07-30T21:45:10.308Z,56.75
2022-07-30T21:48:17.924Z,56.89
2022-07-30T21:51:26.832Z,56.97
2022-07-30T21:54:45.274Z,57.01
2022-07-30T21:57:44.856Z,56.98
2022-07-30T22:01:17.570Z,57.00
2022-07-30T22:04:16.525Z,57.11
2022-07-30T22:07:23.944Z,57.16
2022-07-30T22:10:30.751Z,57.25
2022-07-30T22:13:51.376Z,57.30
2022-07-30T22:16:47.040Z,57.41
2022-07-30T22:19:54.053Z,57.59
2022-07-30T22:23:02.989Z,57.77
2022-07-30T22:26:10.270Z,58.00
2022-07-30T22:29:16.741Z,58.20
2022-07-30T22:32:21.778Z,58.32
2022-07-30T22:35:33.777Z,58.41
2022-07-30T22:38:37.091Z,58.47
2022-07-30T22:41:42.518Z,58.49
2022-07-30T22:44:48.477Z,58.50
2022-07-30T22:47:55.692Z,58.60
2022-07-30T22:51:01.210Z,58.61
2022-07-30T22:54:12.854Z,58.64
2022-07-30T22:57:16.929Z,58.83
2022-07-30T23:00:28.328Z,59.06
2022-07-30T23:03:33.772Z,59.15
2022-07-30T23:06:41.841Z,59.14
2022-07-30T23:09:52.004Z,59.15
2022-07-30T23:12:58.348Z,59.18
2022-07-30T23:16:03.446Z,59.19
2022-07-30T23:19:09.692Z,59.26
2022-07-30T23:22:17.506Z,59.54
2022-07-30T23:25:25.404Z,59.69
2022-07-30T23:28:33.923Z,59.89
2022-07-30T23:31:42.440Z,60.00
2022-07-30T23:34:49.019Z,59.95
2022-07-30T23:37:54.758Z,59.93
2022-07-30T23:41:00.388Z,59.90
2022-07-30T23:44:07.316Z,60.04
2022-07-30T23:47:13.244Z,60.23
2022-07-30T23:50:22.485Z,60.38
2022-07-30T23:53:29.274Z,60.57
2022-07-30T23:56:37.768Z,60.64
2022-07-30T23:59:43.754Z,60.71
